Albany, Nebraska
Current Conditions -  °F | °C
As of 8:15 PM on Saturday 22 Nov 2014 (Local Time) from KHDE Reporting Station
Clear Clear  
Wind Chill: 40°   Ceiling: Unl
Heat Index: 46°   Visibility: 10mi
Dew Point: 34°   Wind: 13mph
Humidity: 62%   Direction: 170°S
Pressure: 29.53"   Gusts: NA
Location:  40.2849°N, 99.6171°W
Report Text: KHDE 230215Z AUTO 17011KT 10SM CLR 08/01 A2953 RMK AO2 T00790010
Loading
Personal Weather Stations






























Interactive Weather Map New forecast layout! Learn more

10-Day Weather Forecast

Advertisements
Track Severe Weather on mobile